Terminal Aerodrome Forecast
Issued by NWS

Current Version | Previous Version | Graphics & Text | Print | Product List | Glossary On
Versions: 1 2 3 4 5 6 7 8 9 10 11 12 13 14 15 16 17 18 19 20 21 22 23 24 25 26 27 28
000
FTUS41 KRNK 252335
TAFLWB
TAF
KLWB 252335Z 2600/2624 VRB04KT P6SM SCT070 SCT250
      TEMPO 2608/2611 5SM BR
     FM261100 VRB04KT 6SM HZ VCSH SCT025 BKN040
     FM261500 29007G16KT P6SM VCTS SCT030 BKN040CB OVC150 PROB30
      2619/2623 3SM TSRA BKN026CB=

USA.gov is the U.S. government's official web portal to all federal, state and local government web resources and services.